createdAt,value
2023-01-01T00:00:21.430Z,15.81
2023-01-01T00:04:24.464Z,15.80
2023-01-01T00:08:27.537Z,15.83
2023-01-01T00:12:32.300Z,15.87
2023-01-01T00:16:35.268Z,15.84
2023-01-01T00:20:38.617Z,15.86
2023-01-01T00:24:41.670Z,15.84
2023-01-01T00:28:47.770Z,15.88
2023-01-01T00:32:55.120Z,15.90
2023-01-01T00:36:59.234Z,15.89
2023-01-01T00:41:02.216Z,15.75
2023-01-01T00:45:08.658Z,15.69
2023-01-01T00:49:11.603Z,15.61
2023-01-01T00:53:14.757Z,15.59
2023-01-01T00:57:17.871Z,15.53
2023-01-01T01:01:22.312Z,15.51
2023-01-01T01:05:25.555Z,15.48
2023-01-01T01:09:28.698Z,15.46
2023-01-01T01:13:31.708Z,15.43
2023-01-01T01:17:36.665Z,15.26
2023-01-01T01:21:41.894Z,15.18
2023-01-01T01:25:44.999Z,15.14
2023-01-01T01:29:48.629Z,14.99
2023-01-01T01:33:53.038Z,14.97
2023-01-01T01:37:55.832Z,14.94
2023-01-01T01:41:59.067Z,15.02
2023-01-01T01:46:06.124Z,15.05
2023-01-01T01:50:17.929Z,15.15
2023-01-01T01:54:25.374Z,15.13
2023-01-01T01:58:31.952Z,15.19
2023-01-01T02:02:39.503Z,15.18
2023-01-01T02:06:45.595Z,15.13
2023-01-01T02:10:48.808Z,15.17
2023-01-01T02:14:51.804Z,15.26
2023-01-01T02:19:00.987Z,15.26
2023-01-01T02:23:54.600Z,15.24
2023-01-01T02:28:12.199Z,15.25
2023-01-01T02:32:20.876Z,15.21
2023-01-01T02:36:36.263Z,15.16
2023-01-01T02:41:10.662Z,15.18
2023-01-01T02:45:45.300Z,15.16
2023-01-01T02:50:24.869Z,15.12
2023-01-01T02:55:25.034Z,15.09
2023-01-01T03:47:27.375Z,14.86
2023-01-01T03:51:58.011Z,14.81
2023-01-01T03:56:11.064Z,14.85
2023-01-01T04:00:24.378Z,14.83
2023-01-01T04:04:45.086Z,14.75
2023-01-01T04:09:00.590Z,14.75
2023-01-01T04:13:06.372Z,14.80
2023-01-01T04:17:11.706Z,14.77
2023-01-01T04:21:16.547Z,14.74
2023-01-01T04:25:20.059Z,14.71
2023-01-01T04:29:23.348Z,14.72
2023-01-01T04:33:26.343Z,14.74
2023-01-01T04:37:30.836Z,14.73
2023-01-01T04:41:34.249Z,14.71
2023-01-01T04:45:37.184Z,14.67
2023-01-01T04:49:40.267Z,14.71
2023-01-01T04:53:45.431Z,14.69
2023-01-01T04:57:48.196Z,14.70
2023-01-01T05:01:51.215Z,14.72
2023-01-01T05:06:01.480Z,14.74
2023-01-01T05:10:07.542Z,14.70
2023-01-01T05:14:10.543Z,14.69
2023-01-01T05:18:13.464Z,14.72
2023-01-01T05:22:16.454Z,14.67
2023-01-01T05:26:23.327Z,14.71
2023-01-01T05:30:26.456Z,14.69
2023-01-01T05:38:34.038Z,14.69
2023-01-01T05:42:38.367Z,14.71
2023-01-01T05:46:41.212Z,14.72
2023-01-01T05:50:44.206Z,14.75
2023-01-01T05:54:47.204Z,14.69
2023-01-01T05:58:51.607Z,14.67
2023-01-01T06:02:54.952Z,14.60
2023-01-01T06:06:57.993Z,14.55
2023-01-01T06:11:02.069Z,14.52
2023-01-01T06:15:07.621Z,14.51
2023-01-01T06:19:11.417Z,14.42
2023-01-01T06:23:14.292Z,14.37
2023-01-01T06:27:17.289Z,14.34
2023-01-01T06:31:23.253Z,14.32
2023-01-01T06:35:26.107Z,14.30
2023-01-01T06:39:29.037Z,14.32
2023-01-01T06:43:33.207Z,14.31
2023-01-01T06:47:37.920Z,14.29
2023-01-01T06:51:44.418Z,14.29
2023-01-01T06:55:54.943Z,14.25
2023-01-01T06:59:59.873Z,14.24
2023-01-01T07:04:06.490Z,14.20
2023-01-01T07:08:09.513Z,14.19
2023-01-01T07:12:12.432Z,14.20
2023-01-01T07:16:16.716Z,14.17
2023-01-01T07:20:21.000Z,14.15
2023-01-01T07:24:24.517Z,14.14
2023-01-01T07:28:28.833Z,14.12
2023-01-01T07:32:31.960Z,14.10
2023-01-01T07:36:36.333Z,14.03
2023-01-01T07:40:39.255Z,14.05
2023-01-01T07:44:42.536Z,14.00
2023-01-01T07:48:45.810Z,13.99
2023-01-01T07:52:50.169Z,13.98
2023-01-01T07:56:53.020Z,13.92
2023-01-01T08:00:56.107Z,13.86
2023-01-01T08:04:59.053Z,13.82
2023-01-01T08:09:04.871Z,13.76
2023-01-01T08:13:09.657Z,13.71
2023-01-01T08:17:13.339Z,13.62
2023-01-01T08:21:16.872Z,13.44
2023-01-01T08:25:21.810Z,13.27
2023-01-01T08:29:24.802Z,13.11
2023-01-01T08:33:28.325Z,12.98
2023-01-01T08:37:31.424Z,12.81
2023-01-01T08:41:35.720Z,12.67
2023-01-01T08:45:38.853Z,12.49
2023-01-01T08:49:42.724Z,12.41
2023-01-01T08:53:50.954Z,12.35
2023-01-01T08:57:55.834Z,12.29
2023-01-01T09:01:59.855Z,12.28
2023-01-01T09:06:03.443Z,12.26
2023-01-01T09:10:07.600Z,12.24
2023-01-01T09:14:12.414Z,12.19
2023-01-01T09:18:15.851Z,12.23
2023-01-01T09:22:19.870Z,12.22
2023-01-01T09:26:23.831Z,12.23
2023-01-01T09:30:28.438Z,12.26
2023-01-01T09:34:31.448Z,12.27
2023-01-01T09:38:34.350Z,12.32
2023-01-01T09:42:44.042Z,12.32
2023-01-01T09:46:48.815Z,12.38
2023-01-01T09:50:52.466Z,12.35
2023-01-01T09:55:00.045Z,12.40
2023-01-01T09:59:02.937Z,12.45
2023-01-01T10:03:26.438Z,12.45
2023-01-01T10:07:36.873Z,12.44
2023-01-01T10:11:51.051Z,12.44
2023-01-01T10:15:59.524Z,12.39
2023-01-01T10:20:08.847Z,12.36
2023-01-01T10:24:31.854Z,12.37
2023-01-01T10:28:43.062Z,12.33
2023-01-01T10:32:48.997Z,12.27
2023-01-01T10:36:55.926Z,12.28
2023-01-01T10:41:04.560Z,12.32
2023-01-01T10:45:14.059Z,12.36
2023-01-01T10:49:17.166Z,12.36
2023-01-01T10:53:25.814Z,12.36
2023-01-01T10:57:35.106Z,12.39
2023-01-01T11:01:38.462Z,12.39
2023-01-01T11:06:02.659Z,12.38
2023-01-01T11:10:08.771Z,12.34
2023-01-01T11:14:21.037Z,12.29
2023-01-01T11:18:46.943Z,12.21
2023-01-01T11:23:26.075Z,12.15
2023-01-01T11:28:19.739Z,12.11
2023-01-01T11:32:55.284Z,12.09
2023-01-01T11:37:38.723Z,12.06
2023-01-01T11:42:08.330Z,12.02
2023-01-01T11:46:46.920Z,11.95
2023-01-01T12:12:39.511Z,12.03
2023-01-01T12:17:18.995Z,12.06
2023-01-01T12:21:57.799Z,12.09
2023-01-01T12:26:41.785Z,12.13
2023-01-01T12:31:23.183Z,12.14
2023-01-01T12:36:15.158Z,12.18
2023-01-01T12:40:39.727Z,12.26
2023-01-01T12:45:30.430Z,12.30
2023-01-01T12:50:11.138Z,12.37
2023-01-01T12:54:37.738Z,12.42
2023-01-01T12:58:45.341Z,12.48
2023-01-01T13:03:22.352Z,12.58
2023-01-01T13:08:01.351Z,12.72
2023-01-01T13:12:21.635Z,12.85
2023-01-01T13:21:04.773Z,13.08
2023-01-01T13:25:25.530Z,13.13
2023-01-01T13:29:48.268Z,13.22
2023-01-01T13:34:27.290Z,13.25
2023-01-01T13:38:46.982Z,13.25
2023-01-01T13:43:07.532Z,13.27
2023-01-01T13:47:31.324Z,13.24
2023-01-01T13:52:05.715Z,13.25
2023-01-01T13:56:28.056Z,13.28
2023-01-01T14:00:36.963Z,13.24
2023-01-01T14:04:45.489Z,13.25
2023-01-01T14:09:03.139Z,13.24
2023-01-01T14:13:18.316Z,13.27
2023-01-01T14:17:21.849Z,13.26
2023-01-01T14:21:28.297Z,13.27
2023-01-01T14:25:31.288Z,13.28
2023-01-01T14:29:36.683Z,13.26
2023-01-01T14:33:40.332Z,13.27
2023-01-01T14:37:43.977Z,13.26
2023-01-01T14:41:46.902Z,13.26
2023-01-01T14:45:54.815Z,13.23
2023-01-01T14:50:05.628Z,13.20
2023-01-01T14:54:13.028Z,13.19
2023-01-01T14:58:20.861Z,13.18
2023-01-01T15:02:28.330Z,13.16
2023-01-01T15:06:32.806Z,13.13
2023-01-01T15:10:38.383Z,13.08
2023-01-01T15:14:45.570Z,13.09
2023-01-01T15:18:52.989Z,13.06
2023-01-01T15:22:57.168Z,13.05
2023-01-01T15:27:02.169Z,13.03
2023-01-01T15:31:05.456Z,13.02
2023-01-01T15:35:27.698Z,12.99
2023-01-01T15:39:34.647Z,13.00
2023-01-01T15:43:46.480Z,12.96
2023-01-01T15:47:51.259Z,12.94
2023-01-01T15:51:59.460Z,12.92
2023-01-01T15:56:06.740Z,12.91
2023-01-01T16:00:20.183Z,12.91
2023-01-01T16:04:29.149Z,12.89
2023-01-01T16:08:35.036Z,12.85
2023-01-01T16:12:38.145Z,12.85
2023-01-01T16:16:46.343Z,12.76
2023-01-01T16:20:49.767Z,12.73
2023-01-01T16:24:59.678Z,12.69
2023-01-01T16:29:04.520Z,12.66
2023-01-01T16:33:16.788Z,12.66
2023-01-01T16:37:25.596Z,12.66
2023-01-01T16:41:42.943Z,12.67
2023-01-01T16:45:48.513Z,12.67
2023-01-01T16:49:51.499Z,12.63
2023-01-01T16:53:54.518Z,12.56
2023-01-01T16:58:38.170Z,12.61
2023-01-01T17:02:22.751Z,12.60
2023-01-01T17:06:25.948Z,12.63
2023-01-01T17:10:30.159Z,12.68
2023-01-01T17:14:35.157Z,12.70
2023-01-01T17:23:16.670Z,12.74
2023-01-01T17:27:36.512Z,12.79
2023-01-01T17:31:57.751Z,12.79
2023-01-01T17:36:19.576Z,12.75
2023-01-01T17:40:47.934Z,12.73
2023-01-01T17:44:55.212Z,12.72
2023-01-01T17:49:06.297Z,12.69
2023-01-01T17:53:14.181Z,12.69
2023-01-01T17:57:22.233Z,12.64
2023-01-01T18:01:32.167Z,12.63
2023-01-01T18:05:37.625Z,12.63
2023-01-01T18:09:41.697Z,12.54
2023-01-01T18:13:44.984Z,12.46
2023-01-01T18:17:50.475Z,12.43
2023-01-01T18:22:02.848Z,12.39
2023-01-01T18:26:07.966Z,12.35
2023-01-01T18:30:11.804Z,12.29
2023-01-01T18:34:15.630Z,12.24
2023-01-01T18:38:20.253Z,12.26
2023-01-01T18:42:39.791Z,12.22
2023-01-01T18:46:42.845Z,12.15
2023-01-01T18:50:45.688Z,12.13
2023-01-01T18:54:53.190Z,12.14
2023-01-01T18:58:57.917Z,12.11
2023-01-01T19:03:02.985Z,12.06
2023-01-01T19:07:11.163Z,11.99
2023-01-01T19:11:31.273Z,12.00
2023-01-01T19:15:49.829Z,11.93
2023-01-01T19:20:10.638Z,11.89
2023-01-01T19:24:29.055Z,11.90
2023-01-01T19:28:35.832Z,11.81
2023-01-01T19:32:39.322Z,11.73
2023-01-01T19:36:42.979Z,11.73
2023-01-01T19:40:57.516Z,11.75
2023-01-01T19:45:02.665Z,11.75
2023-01-01T19:49:06.067Z,11.74
2023-01-01T19:53:09.313Z,11.71
2023-01-01T19:57:14.005Z,11.70
2023-01-01T20:01:20.043Z,11.65
2023-01-01T20:05:33.340Z,11.62
2023-01-01T20:09:38.412Z,11.61
2023-01-01T20:13:42.406Z,11.59
2023-01-01T20:17:47.467Z,11.61
2023-01-01T20:22:14.896Z,11.53
2023-01-01T20:26:28.604Z,11.50
2023-01-01T20:30:50.707Z,11.54
2023-01-01T20:35:13.220Z,11.60
2023-01-01T20:39:39.380Z,11.59
2023-01-01T20:44:14.350Z,11.55
2023-01-01T20:54:11.415Z,11.54
2023-01-01T20:58:48.411Z,11.56
2023-01-01T21:03:48.370Z,11.54
2023-01-01T21:08:40.473Z,11.53
2023-01-01T21:13:17.116Z,11.47
2023-01-01T21:17:38.567Z,11.49
2023-01-01T21:22:00.665Z,11.49
2023-01-01T21:26:27.920Z,11.43
2023-01-01T21:30:51.084Z,11.48
2023-01-01T21:34:58.236Z,11.48
2023-01-01T21:39:09.390Z,11.54
2023-01-01T21:43:28.603Z,11.57
2023-01-01T21:47:32.224Z,11.60
2023-01-01T21:51:46.015Z,11.61
2023-01-01T21:55:55.330Z,11.64
2023-01-01T21:59:58.475Z,11.65
2023-01-01T22:04:03.984Z,11.66
2023-01-01T22:08:26.261Z,11.64
2023-01-01T22:12:32.321Z,11.65
2023-01-01T22:16:35.233Z,11.70
2023-01-01T22:20:40.798Z,11.70
2023-01-01T22:24:52.706Z,11.77
2023-01-01T22:29:01.022Z,11.77
2023-01-01T22:33:12.830Z,11.75
2023-01-01T22:37:20.025Z,11.69
2023-01-01T22:41:24.442Z,11.67
2023-01-01T22:45:28.042Z,11.59
2023-01-01T22:49:35.887Z,11.59
2023-01-01T22:53:39.107Z,11.59
2023-01-01T22:57:43.647Z,11.58
2023-01-01T23:01:46.727Z,11.60
2023-01-01T23:05:49.662Z,11.57
2023-01-01T23:09:52.780Z,11.52
2023-01-01T23:14:14.627Z,11.43
2023-01-01T23:18:17.649Z,11.46
2023-01-01T23:22:21.409Z,11.51
2023-01-01T23:26:25.792Z,11.56
2023-01-01T23:30:30.257Z,11.58
2023-01-01T23:34:34.168Z,11.56
2023-01-01T23:38:38.696Z,11.60
2023-01-01T23:42:42.291Z,11.66
2023-01-01T23:46:47.630Z,11.68
2023-01-01T23:50:51.965Z,11.69
2023-01-01T23:54:54.753Z,11.73
2023-01-01T23:58:57.866Z,11.75
